sensor_id;sensor_type;location;lat;lon;timestamp;P1;durP1;ratioP1;P2;durP2;ratioP2
53287;SDS011;39172;45.550;12.072;2022-09-09T00:04:05;1.15;;;0.70;;
53287;SDS011;39172;45.550;12.072;2022-09-09T00:16:30;1.92;;;0.77;;
53287;SDS011;39172;45.550;12.072;2022-09-09T00:22:33;1.35;;;1.00;;
53287;SDS011;39172;45.550;12.072;2022-09-09T00:35:04;1.50;;;0.93;;
53287;SDS011;39172;45.550;12.072;2022-09-09T00:41:14;1.45;;;1.08;;
53287;SDS011;39172;45.550;12.072;2022-09-09T01:05:44;2.08;;;0.80;;
53287;SDS011;39172;45.550;12.072;2022-09-09T01:18:05;1.17;;;0.88;;
53287;SDS011;39172;45.550;12.072;2022-09-09T01:30:28;2.38;;;1.02;;
53287;SDS011;39172;45.550;12.072;2022-09-09T01:36:36;1.58;;;1.00;;
53287;SDS011;39172;45.550;12.072;2022-09-09T01:42:39;1.55;;;1.27;;
53287;SDS011;39172;45.550;12.072;2022-09-09T01:48:41;1.95;;;1.15;;
53287;SDS011;39172;45.550;12.072;2022-09-09T01:54:44;2.45;;;1.30;;
53287;SDS011;39172;45.550;12.072;2022-09-09T02:00:53;1.45;;;1.05;;
53287;SDS011;39172;45.550;12.072;2022-09-09T02:06:56;2.58;;;1.30;;
53287;SDS011;39172;45.550;12.072;2022-09-09T02:13:04;1.98;;;1.27;;
53287;SDS011;39172;45.550;12.072;2022-09-09T02:25:21;2.20;;;1.00;;
53287;SDS011;39172;45.550;12.072;2022-09-09T02:31:24;1.20;;;0.90;;
53287;SDS011;39172;45.550;12.072;2022-09-09T02:37:30;2.47;;;0.90;;
53287;SDS011;39172;45.550;12.072;2022-09-09T02:43:33;2.42;;;0.88;;
53287;SDS011;39172;45.550;12.072;2022-09-09T03:01:46;1.48;;;0.90;;
53287;SDS011;39172;45.550;12.072;2022-09-09T03:07:49;1.77;;;1.00;;
53287;SDS011;39172;45.550;12.072;2022-09-09T03:13:53;1.63;;;0.90;;
53287;SDS011;39172;45.550;12.072;2022-09-09T03:19:56;1.15;;;0.77;;
53287;SDS011;39172;45.550;12.072;2022-09-09T03:25:59;1.25;;;0.80;;
53287;SDS011;39172;45.550;12.072;2022-09-09T03:32:10;2.13;;;0.95;;
53287;SDS011;39172;45.550;12.072;2022-09-09T03:38:12;1.23;;;0.90;;
53287;SDS011;39172;45.550;12.072;2022-09-09T03:44:13;1.98;;;0.95;;
53287;SDS011;39172;45.550;12.072;2022-09-09T03:50:16;1.88;;;1.05;;
53287;SDS011;39172;45.550;12.072;2022-09-09T03:56:21;1.70;;;1.00;;
53287;SDS011;39172;45.550;12.072;2022-09-09T04:02:22;1.33;;;1.10;;
53287;SDS011;39172;45.550;12.072;2022-09-09T04:08:24;2.53;;;1.23;;
53287;SDS011;39172;45.550;12.072;2022-09-09T04:14:29;2.63;;;1.20;;
53287;SDS011;39172;45.550;12.072;2022-09-09T04:20:30;1.58;;;1.10;;
53287;SDS011;39172;45.550;12.072;2022-09-09T04:26:32;1.75;;;1.38;;
53287;SDS011;39172;45.550;12.072;2022-09-09T04:32:34;2.00;;;1.60;;
53287;SDS011;39172;45.550;12.072;2022-09-09T04:38:36;2.80;;;1.83;;
53287;SDS011;39172;45.550;12.072;2022-09-09T04:44:38;3.03;;;1.67;;
53287;SDS011;39172;45.550;12.072;2022-09-09T04:50:42;2.67;;;1.55;;
53287;SDS011;39172;45.550;12.072;2022-09-09T04:56:46;3.58;;;1.70;;
53287;SDS011;39172;45.550;12.072;2022-09-09T05:02:47;3.15;;;1.90;;
53287;SDS011;39172;45.550;12.072;2022-09-09T05:08:48;2.67;;;1.50;;
53287;SDS011;39172;45.550;12.072;2022-09-09T05:14:53;3.88;;;1.80;;
53287;SDS011;39172;45.550;12.072;2022-09-09T05:20:58;3.17;;;1.98;;
53287;SDS011;39172;45.550;12.072;2022-09-09T05:26:59;2.92;;;1.73;;
53287;SDS011;39172;45.550;12.072;2022-09-09T05:33:03;3.03;;;1.70;;
53287;SDS011;39172;45.550;12.072;2022-09-09T05:39:04;3.83;;;1.90;;
53287;SDS011;39172;45.550;12.072;2022-09-09T05:45:07;5.10;;;2.55;;
53287;SDS011;39172;45.550;12.072;2022-09-09T05:51:10;4.07;;;2.60;;
53287;SDS011;39172;45.550;12.072;2022-09-09T05:57:13;4.25;;;2.42;;
53287;SDS011;39172;45.550;12.072;2022-09-09T06:03:14;5.15;;;2.10;;
53287;SDS011;39172;45.550;12.072;2022-09-09T06:09:17;4.13;;;1.90;;
53287;SDS011;39172;45.550;12.072;2022-09-09T06:15:20;3.42;;;2.03;;
53287;SDS011;39172;45.550;12.072;2022-09-09T06:21:22;3.80;;;2.20;;
53287;SDS011;39172;45.550;12.072;2022-09-09T06:27:25;3.10;;;2.17;;
53287;SDS011;39172;45.550;12.072;2022-09-09T06:33:32;3.30;;;2.13;;
53287;SDS011;39172;45.550;12.072;2022-09-09T06:39:35;5.43;;;2.10;;
53287;SDS011;39172;45.550;12.072;2022-09-09T06:45:36;3.17;;;2.20;;
53287;SDS011;39172;45.550;12.072;2022-09-09T06:51:38;3.22;;;1.80;;
53287;SDS011;39172;45.550;12.072;2022-09-09T06:57:45;2.33;;;1.75;;
53287;SDS011;39172;45.550;12.072;2022-09-09T07:03:52;5.43;;;2.30;;
53287;SDS011;39172;45.550;12.072;2022-09-09T07:09:54;3.78;;;2.10;;
53287;SDS011;39172;45.550;12.072;2022-09-09T07:15:55;4.10;;;2.03;;
53287;SDS011;39172;45.550;12.072;2022-09-09T07:22:03;2.47;;;1.80;;
53287;SDS011;39172;45.550;12.072;2022-09-09T07:28:05;4.03;;;1.98;;
53287;SDS011;39172;45.550;12.072;2022-09-09T07:34:08;4.72;;;1.92;;
53287;SDS011;39172;45.550;12.072;2022-09-09T07:40:09;3.08;;;1.85;;
53287;SDS011;39172;45.550;12.072;2022-09-09T07:46:11;4.05;;;2.00;;
53287;SDS011;39172;45.550;12.072;2022-09-09T07:52:13;4.30;;;2.10;;
53287;SDS011;39172;45.550;12.072;2022-09-09T07:58:18;4.00;;;2.13;;
53287;SDS011;39172;45.550;12.072;2022-09-09T08:04:19;5.03;;;2.08;;
53287;SDS011;39172;45.550;12.072;2022-09-09T08:10:22;4.05;;;2.15;;
53287;SDS011;39172;45.550;12.072;2022-09-09T08:16:26;4.63;;;2.00;;
53287;SDS011;39172;45.550;12.072;2022-09-09T08:22:28;2.80;;;1.83;;
53287;SDS011;39172;45.550;12.072;2022-09-09T08:28:30;2.88;;;1.60;;
53287;SDS011;39172;45.550;12.072;2022-09-09T08:34:32;3.22;;;1.75;;
53287;SDS011;39172;45.550;12.072;2022-09-09T08:40:37;4.53;;;1.92;;
53287;SDS011;39172;45.550;12.072;2022-09-09T08:47:02;3.25;;;1.73;;
53287;SDS011;39172;45.550;12.072;2022-09-09T08:53:28;3.80;;;1.55;;
53287;SDS011;39172;45.550;12.072;2022-09-09T08:59:31;2.70;;;1.95;;
53287;SDS011;39172;45.550;12.072;2022-09-09T09:11:40;4.82;;;2.30;;
53287;SDS011;39172;45.550;12.072;2022-09-09T09:17:43;3.78;;;2.05;;
53287;SDS011;39172;45.550;12.072;2022-09-09T09:23:48;3.08;;;2.00;;
53287;SDS011;39172;45.550;12.072;2022-09-09T09:29:54;4.07;;;2.07;;
53287;SDS011;39172;45.550;12.072;2022-09-09T09:35:57;3.22;;;1.63;;
53287;SDS011;39172;45.550;12.072;2022-09-09T09:42:12;3.67;;;1.90;;
53287;SDS011;39172;45.550;12.072;2022-09-09T09:48:19;3.65;;;1.80;;
53287;SDS011;39172;45.550;12.072;2022-09-09T10:00:27;3.50;;;1.70;;
53287;SDS011;39172;45.550;12.072;2022-09-09T10:06:36;2.05;;;1.55;;
53287;SDS011;39172;45.550;12.072;2022-09-09T10:12:43;4.25;;;1.95;;
53287;SDS011;39172;45.550;12.072;2022-09-09T10:18:50;2.97;;;1.52;;
53287;SDS011;39172;45.550;12.072;2022-09-09T10:37:06;3.60;;;1.60;;
53287;SDS011;39172;45.550;12.072;2022-09-09T10:43:38;3.47;;;1.60;;
53287;SDS011;39172;45.550;12.072;2022-09-09T10:55:41;1.80;;;1.10;;
53287;SDS011;39172;45.550;12.072;2022-09-09T11:01:44;1.73;;;1.00;;
53287;SDS011;39172;45.550;12.072;2022-09-09T11:07:50;1.55;;;1.00;;
53287;SDS011;39172;45.550;12.072;2022-09-09T11:19:58;3.20;;;1.20;;
53287;SDS011;39172;45.550;12.072;2022-09-09T11:25:59;1.70;;;1.20;;
53287;SDS011;39172;45.550;12.072;2022-09-09T11:44:29;1.77;;;1.00;;
53287;SDS011;39172;45.550;12.072;2022-09-09T11:50:35;1.60;;;1.10;;
53287;SDS011;39172;45.550;12.072;2022-09-09T11:56:43;1.75;;;1.30;;
53287;SDS011;39172;45.550;12.072;2022-09-09T12:02:48;2.28;;;1.30;;
53287;SDS011;39172;45.550;12.072;2022-09-09T12:08:51;2.25;;;1.20;;
53287;SDS011;39172;45.550;12.072;2022-09-09T12:15:01;3.70;;;2.00;;
53287;SDS011;39172;45.550;12.072;2022-09-09T12:21:07;3.22;;;1.73;;
53287;SDS011;39172;45.550;12.072;2022-09-09T12:27:17;2.78;;;1.60;;
53287;SDS011;39172;45.550;12.072;2022-09-09T12:39:35;2.35;;;1.50;;
53287;SDS011;39172;45.550;12.072;2022-09-09T12:45:38;2.65;;;1.70;;
53287;SDS011;39172;45.550;12.072;2022-09-09T12:51:40;2.63;;;1.63;;
53287;SDS011;39172;45.550;12.072;2022-09-09T12:57:44;2.05;;;1.38;;
53287;SDS011;39172;45.550;12.072;2022-09-09T13:03:45;1.73;;;1.10;;
53287;SDS011;39172;45.550;12.072;2022-09-09T13:09:48;1.83;;;1.10;;
53287;SDS011;39172;45.550;12.072;2022-09-09T13:15:50;2.75;;;1.20;;
53287;SDS011;39172;45.550;12.072;2022-09-09T13:21:52;1.98;;;1.20;;
53287;SDS011;39172;45.550;12.072;2022-09-09T13:33:57;2.13;;;1.15;;
53287;SDS011;39172;45.550;12.072;2022-09-09T13:39:58;2.90;;;0.80;;
53287;SDS011;39172;45.550;12.072;2022-09-09T13:46:00;1.95;;;0.80;;
53287;SDS011;39172;45.550;12.072;2022-09-09T13:52:12;1.42;;;0.60;;
53287;SDS011;39172;45.550;12.072;2022-09-09T13:58:14;2.55;;;1.08;;
53287;SDS011;39172;45.550;12.072;2022-09-09T14:04:16;1.83;;;0.70;;
53287;SDS011;39172;45.550;12.072;2022-09-09T14:10:17;1.10;;;0.60;;
53287;SDS011;39172;45.550;12.072;2022-09-09T14:16:18;2.53;;;1.00;;
53287;SDS011;39172;45.550;12.072;2022-09-09T14:22:22;1.60;;;0.85;;
53287;SDS011;39172;45.550;12.072;2022-09-09T14:28:23;1.58;;;1.00;;
53287;SDS011;39172;45.550;12.072;2022-09-09T14:34:24;2.22;;;1.00;;
53287;SDS011;39172;45.550;12.072;2022-09-09T14:40:25;2.40;;;1.40;;
53287;SDS011;39172;45.550;12.072;2022-09-09T14:46:26;1.98;;;1.45;;
53287;SDS011;39172;45.550;12.072;2022-09-09T14:52:27;3.20;;;1.75;;
53287;SDS011;39172;45.550;12.072;2022-09-09T14:58:30;2.80;;;1.60;;
53287;SDS011;39172;45.550;12.072;2022-09-09T15:04:31;2.15;;;1.27;;
53287;SDS011;39172;45.550;12.072;2022-09-09T15:10:32;2.50;;;1.52;;
53287;SDS011;39172;45.550;12.072;2022-09-09T15:16:33;4.53;;;1.40;;
53287;SDS011;39172;45.550;12.072;2022-09-09T15:22:34;3.50;;;1.50;;
53287;SDS011;39172;45.550;12.072;2022-09-09T15:28:37;3.50;;;1.70;;
53287;SDS011;39172;45.550;12.072;2022-09-09T15:34:38;2.92;;;2.00;;
53287;SDS011;39172;45.550;12.072;2022-09-09T15:40:40;3.00;;;1.67;;
53287;SDS011;39172;45.550;12.072;2022-09-09T15:46:43;3.50;;;1.58;;
53287;SDS011;39172;45.550;12.072;2022-09-09T15:52:44;3.28;;;1.40;;
53287;SDS011;39172;45.550;12.072;2022-09-09T15:58:45;2.35;;;1.27;;
53287;SDS011;39172;45.550;12.072;2022-09-09T16:04:46;2.35;;;1.20;;
53287;SDS011;39172;45.550;12.072;2022-09-09T16:10:47;3.53;;;1.55;;
53287;SDS011;39172;45.550;12.072;2022-09-09T16:16:49;1.75;;;1.10;;
53287;SDS011;39172;45.550;12.072;2022-09-09T16:22:49;2.05;;;1.30;;
53287;SDS011;39172;45.550;12.072;2022-09-09T16:28:51;3.30;;;1.70;;
53287;SDS011;39172;45.550;12.072;2022-09-09T16:34:54;3.58;;;1.67;;
53287;SDS011;39172;45.550;12.072;2022-09-09T16:40:58;3.22;;;1.75;;
53287;SDS011;39172;45.550;12.072;2022-09-09T16:47:00;2.95;;;1.50;;
53287;SDS011;39172;45.550;12.072;2022-09-09T16:53:01;2.72;;;1.63;;
53287;SDS011;39172;45.550;12.072;2022-09-09T16:59:08;2.15;;;1.73;;
53287;SDS011;39172;45.550;12.072;2022-09-09T17:05:09;3.45;;;2.00;;
53287;SDS011;39172;45.550;12.072;2022-09-09T17:11:13;1.92;;;1.52;;
53287;SDS011;39172;45.550;12.072;2022-09-09T17:17:15;1.40;;;1.20;;
53287;SDS011;39172;45.550;12.072;2022-09-09T17:23:16;1.50;;;1.20;;
53287;SDS011;39172;45.550;12.072;2022-09-09T17:29:17;1.20;;;0.98;;
53287;SDS011;39172;45.550;12.072;2022-09-09T17:35:18;1.67;;;1.00;;
53287;SDS011;39172;45.550;12.072;2022-09-09T17:41:24;1.02;;;0.70;;
53287;SDS011;39172;45.550;12.072;2022-09-09T17:47:25;1.10;;;0.85;;
53287;SDS011;39172;45.550;12.072;2022-09-09T17:53:27;1.50;;;0.52;;
53287;SDS011;39172;45.550;12.072;2022-09-09T17:59:28;1.00;;;0.90;;
53287;SDS011;39172;45.550;12.072;2022-09-09T18:05:29;2.92;;;2.08;;
53287;SDS011;39172;45.550;12.072;2022-09-09T18:11:32;3.67;;;3.03;;
53287;SDS011;39172;45.550;12.072;2022-09-09T18:17:33;4.65;;;3.45;;
53287;SDS011;39172;45.550;12.072;2022-09-09T18:23:35;5.03;;;4.00;;
53287;SDS011;39172;45.550;12.072;2022-09-09T18:29:37;5.28;;;4.55;;
53287;SDS011;39172;45.550;12.072;2022-09-09T18:35:38;6.28;;;4.80;;
53287;SDS011;39172;45.550;12.072;2022-09-09T18:41:40;4.97;;;3.92;;
53287;SDS011;39172;45.550;12.072;2022-09-09T18:47:41;4.53;;;3.20;;
53287;SDS011;39172;45.550;12.072;2022-09-09T18:53:44;4.32;;;2.65;;
53287;SDS011;39172;45.550;12.072;2022-09-09T18:59:48;3.70;;;2.40;;
53287;SDS011;39172;45.550;12.072;2022-09-09T19:05:50;2.38;;;1.60;;
53287;SDS011;39172;45.550;12.072;2022-09-09T19:11:51;2.55;;;1.45;;
53287;SDS011;39172;45.550;12.072;2022-09-09T19:17:52;3.47;;;1.52;;
53287;SDS011;39172;45.550;12.072;2022-09-09T19:23:54;4.15;;;1.80;;
53287;SDS011;39172;45.550;12.072;2022-09-09T19:29:55;4.55;;;1.75;;
53287;SDS011;39172;45.550;12.072;2022-09-09T19:35:57;2.03;;;1.20;;
53287;SDS011;39172;45.550;12.072;2022-09-09T19:41:58;2.45;;;1.10;;
53287;SDS011;39172;45.550;12.072;2022-09-09T19:47:59;1.67;;;1.00;;
53287;SDS011;39172;45.550;12.072;2022-09-09T19:54:02;1.10;;;0.95;;
53287;SDS011;39172;45.550;12.072;2022-09-09T20:00:03;1.20;;;0.90;;
53287;SDS011;39172;45.550;12.072;2022-09-09T20:06:13;1.95;;;1.00;;
53287;SDS011;39172;45.550;12.072;2022-09-09T20:12:15;0.95;;;0.70;;
53287;SDS011;39172;45.550;12.072;2022-09-09T20:18:16;1.30;;;0.93;;
53287;SDS011;39172;45.550;12.072;2022-09-09T20:24:18;1.38;;;0.95;;
53287;SDS011;39172;45.550;12.072;2022-09-09T20:30:19;1.55;;;0.90;;
53287;SDS011;39172;45.550;12.072;2022-09-09T20:36:24;1.50;;;1.13;;
53287;SDS011;39172;45.550;12.072;2022-09-09T20:42:26;2.17;;;1.00;;
53287;SDS011;39172;45.550;12.072;2022-09-09T20:48:30;1.73;;;0.90;;
53287;SDS011;39172;45.550;12.072;2022-09-09T20:54:31;1.27;;;0.80;;
53287;SDS011;39172;45.550;12.072;2022-09-09T21:00:33;1.00;;;0.80;;
53287;SDS011;39172;45.550;12.072;2022-09-09T21:06:34;1.15;;;0.70;;
53287;SDS011;39172;45.550;12.072;2022-09-09T21:12:35;1.70;;;0.85;;
53287;SDS011;39172;45.550;12.072;2022-09-09T21:18:36;1.85;;;0.90;;
53287;SDS011;39172;45.550;12.072;2022-09-09T21:24:37;0.88;;;0.68;;
53287;SDS011;39172;45.550;12.072;2022-09-09T21:30:38;2.20;;;1.40;;
53287;SDS011;39172;45.550;12.072;2022-09-09T21:36:42;1.45;;;0.85;;
53287;SDS011;39172;45.550;12.072;2022-09-09T21:42:43;1.52;;;0.98;;
53287;SDS011;39172;45.550;12.072;2022-09-09T21:48:46;1.10;;;0.73;;
53287;SDS011;39172;45.550;12.072;2022-09-09T21:54:47;1.05;;;0.80;;
53287;SDS011;39172;45.550;12.072;2022-09-09T22:00:49;1.30;;;0.90;;
53287;SDS011;39172;45.550;12.072;2022-09-09T22:06:49;1.00;;;0.80;;
53287;SDS011;39172;45.550;12.072;2022-09-09T22:12:50;0.90;;;0.70;;
53287;SDS011;39172;45.550;12.072;2022-09-09T22:18:52;0.90;;;0.60;;
53287;SDS011;39172;45.550;12.072;2022-09-09T22:24:53;0.73;;;0.52;;
53287;SDS011;39172;45.550;12.072;2022-09-09T22:30:54;0.70;;;0.50;;
53287;SDS011;39172;45.550;12.072;2022-09-09T22:36:55;0.70;;;0.50;;
53287;SDS011;39172;45.550;12.072;2022-09-09T22:42:56;1.40;;;0.93;;
53287;SDS011;39172;45.550;12.072;2022-09-09T22:48:57;1.10;;;0.85;;
53287;SDS011;39172;45.550;12.072;2022-09-09T22:54:58;0.80;;;0.60;;
53287;SDS011;39172;45.550;12.072;2022-09-09T23:00:59;1.05;;;0.70;;
53287;SDS011;39172;45.550;12.072;2022-09-09T23:07:00;0.60;;;0.50;;
53287;SDS011;39172;45.550;12.072;2022-09-09T23:13:02;1.13;;;0.50;;
53287;SDS011;39172;45.550;12.072;2022-09-09T23:19:05;0.50;;;0.40;;
53287;SDS011;39172;45.550;12.072;2022-09-09T23:25:09;0.80;;;0.50;;
53287;SDS011;39172;45.550;12.072;2022-09-09T23:31:10;0.95;;;0.47;;
53287;SDS011;39172;45.550;12.072;2022-09-09T23:37:13;1.17;;;0.50;;
53287;SDS011;39172;45.550;12.072;2022-09-09T23:43:14;0.60;;;0.40;;
53287;SDS011;39172;45.550;12.072;2022-09-09T23:49:15;0.40;;;0.40;;
53287;SDS011;39172;45.550;12.072;2022-09-09T23:55:16;0.60;;;0.40;;
